MOL Maxim — V7TU3 — position and weather

sailwx.info

Track history (hours):
 
Tides and Currents Weather Stations Pressure Air Temp Water Temp Dewpoint Dewpoint Depression Visibility Wind Speed Wind Dir Waves Ship Positions

MOL Maxim

Last reported at 2018-Jun-15 15:12 UTC. Time now 2018-Jun-20 23:08 UTC.
Position N 26°29' W 115°52'.

Length 302 m; draft 13.1 m.

Type: Ship (hazmat cat A). MMSI: 538003886.

Date/timePositionNaut miles runAvg speedWind from/ knotsBaromVisibWave heightAir tempDewpointWater temp
2018-Jun-15 15:12N 26°29' W 115°52'519.4
2018-Jun-15 14:55N 26°33' W 115°57'920.3
2018-Jun-15 14:28N 26°38' W 116°05'9119.8
2018-Jun-15 09:52N 27°34' W 117°25'16319.4
2018-Jun-15 01:26N 29°14' W 119°52'12819.7
2018-Jun-14 18:54N 30°31' W 121°51'819.1
2018-Jun-14 18:30N 30°35' W 121°58'1019.2
2018-Jun-14 18:00N 30°41' W 122°07'1119.1
2018-Jun-14 17:26N 30°47' W 122°18'2119.1
2018-Jun-14 16:19N 30°59' W 122°39'619.0
2018-Jun-14 16:00N 31°02' W 122°44'1019.3
2018-Jun-14 15:30N 31°07' W 122°53'3419.3
2018-Jun-14 13:45N 31°26' W 123°26'1019.3
2018-Jun-14 13:15N 31°32' W 123°36'519.4
2018-Jun-14 13:00N 31°34' W 123°40'2819.2
2018-Jun-14 11:32N 31°50' W 124°08'3719.3
2018-Jun-14 09:36N 32°10' W 124°45'1819.3
2018-Jun-14 08:40N 32°20' W 125°03'319.2
2018-Jun-14 08:30N 32°22' W 125°06'1019.1
2018-Jun-14 08:00N 32°27' W 125°15'1119.1
2018-Jun-14 07:25N 32°34' W 125°26'819.0
2018-Jun-14 06:59N 32°38' W 125°35'919.1
2018-Jun-14 06:30N 32°43' W 125°44'1119.2
2018-Jun-14 05:57N 32°48' W 125°54'919.1
2018-Jun-14 05:30N 32°53' W 126°03'1019.2
2018-Jun-14 05:00N 32°58' W 126°13'1019.3
2018-Jun-14 04:30N 33°03' W 126°23'1119.4
2018-Jun-14 03:55N 33°09' W 126°34'42719.5
2018-Jun-13 06:00N 36°42' W 134°06'15319.2 270 / 171024.2 5.4 19.0 18.0
2018-Jun-12 22:00N 37°48' W 137°00'7919.9 260 / 171023.8 21.0 18.0
2018-Jun-12 18:00N 38°24' W 138°30'23619.7 260 / 191022.8 21.0 17.0
2018-Jun-12 06:00N 39°54' W 143°12'13719.5 240 / 251016.3 0.3 15.0 15.0
2018-Jun-11 23:00N 40°42' W 146°00'47219.7 240 / 231012.8 0.0 16.0 14.0
2018-Jun-10 23:00N 43°00' W 156°06'8120.2 250 / 191010.4 5.4 15.0 11.0
2018-Jun-10 19:00N 43°18' W 157°54'23819.8 260 / 171010.0 5.4 14.0 11.0
2018-Jun-10 07:00N 44°00' W 163°18'15619.5 280 / 211008.8 5.4 11.0 10.0
2018-Jun-09 23:00N 44°18' W 166°54'6521.5 290 / 251008.8 5.4 12.0 9.0
2018-Jun-09 20:00N 44°24' W 168°24'23619.6 290 / 121007.8 9.0 10.0
2018-Jun-09 08:00N 44°36' W 173°54'15819.8 280 / 101001.2 0.3 10.0 9.0
2018-Jun-09 00:00N 44°36' W 177°36'8528.4 260 / 14996.7 2.2 16.0 8.0
2018-Jun-08 21:00N 43°36' W 179°00'   270 / 19995.3 14.0 8.0
Track history (hours):
 
Tides and Currents Weather Stations Pressure Air Temp Water Temp Dewpoint Dewpoint Depression Visibility Wind Speed Wind Dir Waves Ship Positions

MOL Maxim

Last reported at 2018-Jun-15 15:12 UTC. Time now 2018-Jun-20 23:08 UTC.
Position N 26°29' W 115°52'.

Length 302 m; draft 13.1 m.

Type: Ship (hazmat cat A). MMSI: 538003886.

Date/timePositionNaut miles runAvg speedWind from/ knotsBaromVisibWave heightAir tempDewpointWater temp
2018-Jun-15 15:12N 26°29' W 115°52'519.4
2018-Jun-15 14:55N 26°33' W 115°57'920.3
2018-Jun-15 14:28N 26°38' W 116°05'9119.8
2018-Jun-15 09:52N 27°34' W 117°25'16319.4
2018-Jun-15 01:26N 29°14' W 119°52'12819.7
2018-Jun-14 18:54N 30°31' W 121°51'819.1
2018-Jun-14 18:30N 30°35' W 121°58'1019.2
2018-Jun-14 18:00N 30°41' W 122°07'1119.1
2018-Jun-14 17:26N 30°47' W 122°18'2119.1
2018-Jun-14 16:19N 30°59' W 122°39'619.0
2018-Jun-14 16:00N 31°02' W 122°44'1019.3
2018-Jun-14 15:30N 31°07' W 122°53'3419.3
2018-Jun-14 13:45N 31°26' W 123°26'1019.3
2018-Jun-14 13:15N 31°32' W 123°36'519.4
2018-Jun-14 13:00N 31°34' W 123°40'2819.2
2018-Jun-14 11:32N 31°50' W 124°08'3719.3
2018-Jun-14 09:36N 32°10' W 124°45'1819.3
2018-Jun-14 08:40N 32°20' W 125°03'319.2
2018-Jun-14 08:30N 32°22' W 125°06'1019.1
2018-Jun-14 08:00N 32°27' W 125°15'1119.1
2018-Jun-14 07:25N 32°34' W 125°26'819.0
2018-Jun-14 06:59N 32°38' W 125°35'919.1
2018-Jun-14 06:30N 32°43' W 125°44'1119.2
2018-Jun-14 05:57N 32°48' W 125°54'919.1
2018-Jun-14 05:30N 32°53' W 126°03'1019.2
2018-Jun-14 05:00N 32°58' W 126°13'1019.3
2018-Jun-14 04:30N 33°03' W 126°23'1119.4
2018-Jun-14 03:55N 33°09' W 126°34'42719.5
2018-Jun-13 06:00N 36°42' W 134°06'15319.2 270 / 171024.2 5.4 19.0 18.0
2018-Jun-12 22:00N 37°48' W 137°00'7919.9 260 / 171023.8 21.0 18.0
2018-Jun-12 18:00N 38°24' W 138°30'23619.7 260 / 191022.8 21.0 17.0
2018-Jun-12 06:00N 39°54' W 143°12'13719.5 240 / 251016.3 0.3 15.0 15.0
2018-Jun-11 23:00N 40°42' W 146°00'47219.7 240 / 231012.8 0.0 16.0 14.0
2018-Jun-10 23:00N 43°00' W 156°06'8120.2 250 / 191010.4 5.4 15.0 11.0
2018-Jun-10 19:00N 43°18' W 157°54'23819.8 260 / 171010.0 5.4 14.0 11.0
2018-Jun-10 07:00N 44°00' W 163°18'15619.5 280 / 211008.8 5.4 11.0 10.0
2018-Jun-09 23:00N 44°18' W 166°54'6521.5 290 / 251008.8 5.4 12.0 9.0
2018-Jun-09 20:00N 44°24' W 168°24'23619.6 290 / 121007.8 9.0 10.0
2018-Jun-09 08:00N 44°36' W 173°54'15819.8 280 / 101001.2 0.3 10.0 9.0
2018-Jun-09 00:00N 44°36' W 177°36'8528.4 260 / 14996.7 2.2 16.0 8.0
2018-Jun-08 21:00N 43°36' W 179°00'   270 / 19995.3 14.0 8.0

Dump ship's entire track history